ESNU/UME METAR and TAF weather

Enter ICAO airport designator
Station Type Date Time Source
ESNU METAR 2021/07/29 02:20 UTC NOAA

ESNU 290220Z 31003KT CAVOK 15/12 Q1000


Station Type Date Time Source
ESNU Decoded METAR 2021/07/29 02:20 UTC NOAA

Umea Flygplats, Sweden (ESNU) 63-48N 020-17E 14M
Jul 28, 2021 - 10:20 PM EDT / 2021.07.29 0220 UTC
Wind: from the NW (310 degrees) at 3 MPH (3 KT):0
Visibility: greater than 7 mile(s):0
Temperature: 59 F (15 C)
Dew Point: 53 F (12 C)
Relative Humidity: 82%
Pressure (altimeter): 29.53 in. Hg (1000 hPa)
ob: ESNU 290220Z 31003KT CAVOK 15/12 Q1000
cycle: 2

Station Type Date Time Source
ESNU TAF 2019/10/24 00:55 UTC NOAA

TAF
AMD ESNU 242348Z 2500/2524 16003KT 0200 FG VV002 PROB40 2500/2509 8000 -RA BKN005

Example: see airport list